TAF LDZA 191725Z 1918/2018 VRB02KT 9999 SCT030
                 TX05/2013Z TNM03/2002Z
    PROB40 TEMPO 1918/1922 4000 -RASN BKN012
           BECMG 1922/2001 0100 FZFG VV001
           BECMG 2009/2012 CAVOK=
TAF COR LDZA 191636Z 1916/2012 VRB02KT 9999 FEW015 OVC035
                     TX05/2012Z TNM02/2004Z
        PROB40 TEMPO 1918/1922 4000 -SNRA BKN012
               BECMG 1923/2001 0100 FZFG VV001
               BECMG 2009/2011 CAVOK=
TAF AMD LDZA 191456Z 1914/2012 05010KT 9999 FEW015 OVC035
                     TX07/1912Z TNM02/2004Z
               TEMPO 1914/1918 4000 RA BKN010
        PROB40 TEMPO 1914/1918 32015G25KT 2000 SHRA FEW025TCU BKN030
               BECMG 1918/1920 VRB02KT
        PROB30 TEMPO 1918/1921 4000 -SNRA BKN012
               BECMG 1923/2001 0100 FZFG VV001
               BECMG 2009/2011 CAVOK=
TAF AMD LDZA 191258Z 1912/2012 05004KT 9999 FEW015 OVC035
                     TX07/1912Z TNM02/2004Z
               TEMPO 1913/1918 4000 RA
        PROB40 TEMPO 1914/1918 32015G25KT 2000 SHRA FEW025TCU BKN030
               BECMG 1913/1915 05012KT
               BECMG 1916/1918 VRB02KT
        PROB30 TEMPO 1918/1921 4000 -SNRA BKN012
               BECMG 1923/2001 0100 FZFG VV001
               BECMG 2009/2011 CAVOK=
TAF AMD LDZA 191145Z 1912/2012 05004KT 9999 FEW015 OVC035
                     TX07/1912Z TNM02/2004Z
        PROB40 TEMPO 1913/1918 32015G25KT 4000 SHRA FEW025TCU BKN030
               BECMG 1913/1915 05012KT
               BECMG 1916/1918 VRB02KT
        PROB30 TEMPO 1918/1921 4000 -SNRA BKN012
               BECMG 1923/2001 0100 FZFG VV001
               BECMG 2009/2011 CAVOK=
TAF LDZA 191125Z 1912/2012 05004KT 9999 FEW015 OVC035
                 TX07/1912Z TNM02/2004Z
    PROB40 TEMPO 1913/1918 32015G25KT 4000 SHRA FEW025TCU BKN030
           BECMG 1913/1915 05012KT
           BECMG 1916/1918 VRB02KT
           BECMG 1923/2001 0100 FZFG VV001
           BECMG 2009/2011 CAVOK=
TAF COR LDZA 190551Z 1906/2006 05007KT 9999 BKN030
                     TX10/1912Z TNM02/2005Z
               TEMPO 1906/1919 4000 RA BKN012 OVC025
        PROB40 TEMPO 1906/1915 32010KT SHRA FEW030TCU BKN040
               BECMG 1917/1919 VRB02KT
               BECMG 1920/1922 3000 BR BKN005
              PROB40 1923/2006 0100 FZFG VV001=
TAF LDZA 190525Z 1906/2006 05007KT 9999 BKN030
                 TX10/1912Z TNM02/2005Z
           TEMPO 1906/1919 4000 RA BKN012 OVC025
           BECMG 1906/1908 05008KT
    PROB40 TEMPO 1906/1915 32010KT SHRA FEW030TCU BKN040
           BECMG 1917/1919 VRB02KT
           BECMG 1920/1922 3000 BR BKN005
          PROB40 1923/2006 0100 FZFG VV001=
TAF LDZA 182325Z 1900/2000 23006KT 9999 BKN030
                 TX08/1912Z TN00/1923Z
           BECMG 1906/1908 05008KT
    PROB40 TEMPO 1908/1912 SHRA FEW025TCU BKN030
           BECMG 1911/1913 4000 -RA
           TEMPO 1912/1919 RA BKN012 OVC025
           BECMG 1917/1919 VRB02KT
          PROB30 1919/1922 0500 BCFG VV002=
TAF LDZA 181725Z 1818/1918 23010KT 9999 BKN030
                 TX08/1912Z TN01/1906Z
           BECMG 1902/1904 VRB02KT
           BECMG 1906/1908 05008KT
    PROB40 TEMPO 1908/1912 SHRA FEW025TCU BKN030
           BECMG 1912/1914 4000 -RA
           TEMPO 1915/1918 RA BKN012 OVC025=
TAF COR LDZA 181126Z 1812/1912 23008KT CAVOK
                     TX08/1813Z TN01/1906Z
               BECMG 1902/1904 VRB02KT
               BECMG 1906/1908 05008KT
               TEMPO 1908/1912 SHRA FEW025TCU BKN030=
TAF LDZA 181125Z 1812/1912 23008KT CAVOK
                 TX08/1813Z TN01/1806Z
           BECMG 1902/1904 VRB02KT
           BECMG 1906/1908 05008KT
           TEMPO 1908/1912 SHRA FEW025TCU BKN030=